sensor_id;sensor_type;location;lat;lon;timestamp;P1;durP1;ratioP1;P2;durP2;ratioP2
17398;SDS011;8817;48.170;8.592;2023-04-29T00:00:44;7.30;;;7.00;;
17398;SDS011;8817;48.170;8.592;2023-04-29T00:03:11;7.50;;;7.10;;
17398;SDS011;8817;48.170;8.592;2023-04-29T00:05:38;7.80;;;7.40;;
17398;SDS011;8817;48.170;8.592;2023-04-29T00:08:05;7.20;;;6.90;;
17398;SDS011;8817;48.170;8.592;2023-04-29T00:10:32;7.53;;;6.80;;
17398;SDS011;8817;48.170;8.592;2023-04-29T00:12:59;7.40;;;7.10;;
17398;SDS011;8817;48.170;8.592;2023-04-29T00:15:27;7.13;;;6.82;;
17398;SDS011;8817;48.170;8.592;2023-04-29T00:17:54;7.60;;;7.20;;
17398;SDS011;8817;48.170;8.592;2023-04-29T00:20:21;7.13;;;6.72;;
17398;SDS011;8817;48.170;8.592;2023-04-29T00:22:48;7.13;;;6.75;;
17398;SDS011;8817;48.170;8.592;2023-04-29T00:25:15;6.90;;;6.40;;
17398;SDS011;8817;48.170;8.592;2023-04-29T00:27:42;7.20;;;6.82;;
17398;SDS011;8817;48.170;8.592;2023-04-29T00:30:09;7.15;;;6.82;;
17398;SDS011;8817;48.170;8.592;2023-04-29T00:32:38;7.50;;;7.10;;
17398;SDS011;8817;48.170;8.592;2023-04-29T00:35:05;7.00;;;6.60;;
17398;SDS011;8817;48.170;8.592;2023-04-29T00:37:32;7.45;;;7.10;;
17398;SDS011;8817;48.170;8.592;2023-04-29T00:40:00;7.45;;;6.90;;
17398;SDS011;8817;48.170;8.592;2023-04-29T00:42:27;7.30;;;7.00;;
17398;SDS011;8817;48.170;8.592;2023-04-29T00:44:54;6.80;;;6.50;;
17398;SDS011;8817;48.170;8.592;2023-04-29T00:47:21;7.00;;;6.70;;
17398;SDS011;8817;48.170;8.592;2023-04-29T00:49:50;7.00;;;6.60;;
17398;SDS011;8817;48.170;8.592;2023-04-29T00:52:17;7.20;;;6.90;;
17398;SDS011;8817;48.170;8.592;2023-04-29T00:54:44;6.93;;;6.63;;
17398;SDS011;8817;48.170;8.592;2023-04-29T00:57:13;7.40;;;6.80;;
17398;SDS011;8817;48.170;8.592;2023-04-29T00:59:40;6.70;;;6.40;;
17398;SDS011;8817;48.170;8.592;2023-04-29T01:02:07;7.50;;;6.88;;
17398;SDS011;8817;48.170;8.592;2023-04-29T01:04:34;7.45;;;6.95;;
17398;SDS011;8817;48.170;8.592;2023-04-29T01:07:06;7.38;;;6.97;;
17398;SDS011;8817;48.170;8.592;2023-04-29T01:09:52;7.10;;;6.80;;
17398;SDS011;8817;48.170;8.592;2023-04-29T01:12:30;6.95;;;6.68;;
17398;SDS011;8817;48.170;8.592;2023-04-29T01:15:02;7.20;;;6.80;;
17398;SDS011;8817;48.170;8.592;2023-04-29T01:17:34;7.22;;;6.93;;
17398;SDS011;8817;48.170;8.592;2023-04-29T01:20:05;7.38;;;7.07;;
17398;SDS011;8817;48.170;8.592;2023-04-29T01:22:35;7.22;;;6.93;;
17398;SDS011;8817;48.170;8.592;2023-04-29T01:25:05;7.60;;;7.20;;
17398;SDS011;8817;48.170;8.592;2023-04-29T01:27:33;8.00;;;7.55;;
17398;SDS011;8817;48.170;8.592;2023-04-29T01:30:06;7.68;;;7.32;;
17398;SDS011;8817;48.170;8.592;2023-04-29T01:32:42;7.38;;;7.05;;
17398;SDS011;8817;48.170;8.592;2023-04-29T01:35:20;7.40;;;7.10;;
17398;SDS011;8817;48.170;8.592;2023-04-29T01:38:00;7.45;;;6.95;;
17398;SDS011;8817;48.170;8.592;2023-04-29T01:40:42;7.15;;;6.85;;
17398;SDS011;8817;48.170;8.592;2023-04-29T01:43:13;7.75;;;7.35;;
17398;SDS011;8817;48.170;8.592;2023-04-29T01:45:42;7.30;;;7.00;;
17398;SDS011;8817;48.170;8.592;2023-04-29T01:48:09;7.47;;;7.07;;
17398;SDS011;8817;48.170;8.592;2023-04-29T01:50:36;7.32;;;7.03;;
17398;SDS011;8817;48.170;8.592;2023-04-29T01:53:03;7.10;;;6.80;;
17398;SDS011;8817;48.170;8.592;2023-04-29T01:55:31;7.10;;;6.80;;
17398;SDS011;8817;48.170;8.592;2023-04-29T01:58:00;8.02;;;7.43;;
17398;SDS011;8817;48.170;8.592;2023-04-29T02:00:27;7.28;;;6.97;;
17398;SDS011;8817;48.170;8.592;2023-04-29T02:02:53;7.13;;;6.80;;
17398;SDS011;8817;48.170;8.592;2023-04-29T02:05:20;7.43;;;7.00;;
17398;SDS011;8817;48.170;8.592;2023-04-29T02:07:47;7.40;;;7.00;;
17398;SDS011;8817;48.170;8.592;2023-04-29T02:10:14;7.60;;;7.20;;
17398;SDS011;8817;48.170;8.592;2023-04-29T02:12:41;7.45;;;7.05;;
17398;SDS011;8817;48.170;8.592;2023-04-29T02:15:09;7.70;;;7.30;;
17398;SDS011;8817;48.170;8.592;2023-04-29T02:17:37;7.80;;;7.30;;
17398;SDS011;8817;48.170;8.592;2023-04-29T02:20:04;7.38;;;7.07;;
17398;SDS011;8817;48.170;8.592;2023-04-29T02:22:31;7.00;;;6.70;;
17398;SDS011;8817;48.170;8.592;2023-04-29T02:24:58;7.32;;;6.93;;
17398;SDS011;8817;48.170;8.592;2023-04-29T02:27:25;7.30;;;6.90;;
17398;SDS011;8817;48.170;8.592;2023-04-29T02:29:52;7.00;;;6.70;;
17398;SDS011;8817;48.170;8.592;2023-04-29T02:32:20;7.57;;;7.18;;
17398;SDS011;8817;48.170;8.592;2023-04-29T02:34:47;7.30;;;7.00;;
17398;SDS011;8817;48.170;8.592;2023-04-29T02:37:14;7.15;;;6.85;;
17398;SDS011;8817;48.170;8.592;2023-04-29T02:39:41;7.10;;;6.80;;
17398;SDS011;8817;48.170;8.592;2023-04-29T02:42:08;7.82;;;7.38;;
17398;SDS011;8817;48.170;8.592;2023-04-29T02:44:35;6.95;;;6.65;;
17398;SDS011;8817;48.170;8.592;2023-04-29T02:47:02;7.40;;;6.90;;
17398;SDS011;8817;48.170;8.592;2023-04-29T02:49:30;7.70;;;7.32;;
17398;SDS011;8817;48.170;8.592;2023-04-29T02:51:57;7.32;;;6.93;;
17398;SDS011;8817;48.170;8.592;2023-04-29T02:54:23;7.10;;;6.80;;
17398;SDS011;8817;48.170;8.592;2023-04-29T02:56:50;7.20;;;6.90;;
17398;SDS011;8817;48.170;8.592;2023-04-29T02:59:17;7.13;;;6.73;;
17398;SDS011;8817;48.170;8.592;2023-04-29T03:01:44;7.00;;;6.70;;
17398;SDS011;8817;48.170;8.592;2023-04-29T03:04:12;6.68;;;6.47;;
17398;SDS011;8817;48.170;8.592;2023-04-29T03:06:40;6.95;;;6.63;;
17398;SDS011;8817;48.170;8.592;2023-04-29T03:09:07;6.85;;;6.55;;
17398;SDS011;8817;48.170;8.592;2023-04-29T03:11:34;7.23;;;6.83;;
17398;SDS011;8817;48.170;8.592;2023-04-29T03:14:01;6.80;;;6.50;;
17398;SDS011;8817;48.170;8.592;2023-04-29T03:16:28;7.40;;;7.00;;
17398;SDS011;8817;48.170;8.592;2023-04-29T03:18:55;7.45;;;7.05;;
17398;SDS011;8817;48.170;8.592;2023-04-29T03:21:23;8.60;;;7.70;;
17398;SDS011;8817;48.170;8.592;2023-04-29T03:23:52;7.70;;;7.20;;
17398;SDS011;8817;48.170;8.592;2023-04-29T03:26:19;7.60;;;7.20;;
17398;SDS011;8817;48.170;8.592;2023-04-29T03:28:48;7.78;;;7.20;;
17398;SDS011;8817;48.170;8.592;2023-04-29T03:31:15;7.87;;;7.40;;
17398;SDS011;8817;48.170;8.592;2023-04-29T03:33:44;7.40;;;7.00;;
17398;SDS011;8817;48.170;8.592;2023-04-29T03:36:11;7.50;;;7.10;;
17398;SDS011;8817;48.170;8.592;2023-04-29T03:38:39;6.90;;;6.60;;
17398;SDS011;8817;48.170;8.592;2023-04-29T03:41:07;7.40;;;7.00;;
17398;SDS011;8817;48.170;8.592;2023-04-29T03:43:34;7.00;;;6.70;;
17398;SDS011;8817;48.170;8.592;2023-04-29T03:46:01;7.63;;;7.33;;
17398;SDS011;8817;48.170;8.592;2023-04-29T03:48:28;7.70;;;7.10;;
17398;SDS011;8817;48.170;8.592;2023-04-29T03:50:55;7.10;;;6.80;;
17398;SDS011;8817;48.170;8.592;2023-04-29T03:53:22;7.20;;;6.80;;
17398;SDS011;8817;48.170;8.592;2023-04-29T03:55:50;7.27;;;6.97;;
17398;SDS011;8817;48.170;8.592;2023-04-29T03:58:18;7.40;;;6.90;;
17398;SDS011;8817;48.170;8.592;2023-04-29T04:00:45;7.30;;;6.90;;
17398;SDS011;8817;48.170;8.592;2023-04-29T04:03:12;6.80;;;6.50;;
17398;SDS011;8817;48.170;8.592;2023-04-29T04:05:39;7.13;;;6.80;;
17398;SDS011;8817;48.170;8.592;2023-04-29T04:08:05;6.97;;;6.67;;
17398;SDS011;8817;48.170;8.592;2023-04-29T04:10:32;6.82;;;6.53;;
17398;SDS011;8817;48.170;8.592;2023-04-29T04:12:59;6.80;;;6.50;;
17398;SDS011;8817;48.170;8.592;2023-04-29T04:15:27;8.30;;;7.72;;
17398;SDS011;8817;48.170;8.592;2023-04-29T04:17:54;7.13;;;6.75;;
17398;SDS011;8817;48.170;8.592;2023-04-29T04:20:21;7.20;;;6.90;;
17398;SDS011;8817;48.170;8.592;2023-04-29T04:22:48;7.10;;;6.80;;
17398;SDS011;8817;48.170;8.592;2023-04-29T04:25:15;7.77;;;7.37;;
17398;SDS011;8817;48.170;8.592;2023-04-29T04:27:42;7.20;;;6.90;;
17398;SDS011;8817;48.170;8.592;2023-04-29T04:30:09;7.27;;;6.97;;
17398;SDS011;8817;48.170;8.592;2023-04-29T04:32:38;7.47;;;7.00;;
17398;SDS011;8817;48.170;8.592;2023-04-29T04:35:06;7.17;;;6.87;;
17398;SDS011;8817;48.170;8.592;2023-04-29T04:37:33;7.93;;;7.40;;
17398;SDS011;8817;48.170;8.592;2023-04-29T04:40:00;7.50;;;7.10;;
17398;SDS011;8817;48.170;8.592;2023-04-29T04:42:27;7.47;;;7.07;;
17398;SDS011;8817;48.170;8.592;2023-04-29T04:44:54;7.20;;;6.90;;
17398;SDS011;8817;48.170;8.592;2023-04-29T04:47:22;7.43;;;7.03;;
17398;SDS011;8817;48.170;8.592;2023-04-29T04:49:50;7.20;;;6.90;;
17398;SDS011;8817;48.170;8.592;2023-04-29T04:52:18;7.10;;;6.80;;
17398;SDS011;8817;48.170;8.592;2023-04-29T04:54:46;7.10;;;6.80;;
17398;SDS011;8817;48.170;8.592;2023-04-29T04:57:13;7.20;;;6.90;;
17398;SDS011;8817;48.170;8.592;2023-04-29T04:59:40;7.40;;;7.00;;
17398;SDS011;8817;48.170;8.592;2023-04-29T05:02:07;8.30;;;7.70;;
17398;SDS011;8817;48.170;8.592;2023-04-29T05:04:34;8.38;;;7.78;;
17398;SDS011;8817;48.170;8.592;2023-04-29T05:07:02;8.50;;;7.83;;
17398;SDS011;8817;48.170;8.592;2023-04-29T05:09:29;9.35;;;8.35;;
17398;SDS011;8817;48.170;8.592;2023-04-29T05:11:56;8.80;;;8.10;;
17398;SDS011;8817;48.170;8.592;2023-04-29T05:14:23;8.55;;;8.02;;
17398;SDS011;8817;48.170;8.592;2023-04-29T05:16:50;8.80;;;8.20;;
17398;SDS011;8817;48.170;8.592;2023-04-29T05:19:17;7.87;;;7.47;;
17398;SDS011;8817;48.170;8.592;2023-04-29T05:21:44;8.30;;;7.67;;
17398;SDS011;8817;48.170;8.592;2023-04-29T05:24:12;8.90;;;8.27;;
17398;SDS011;8817;48.170;8.592;2023-04-29T05:26:40;8.63;;;8.02;;
17398;SDS011;8817;48.170;8.592;2023-04-29T05:29:08;8.00;;;7.50;;
17398;SDS011;8817;48.170;8.592;2023-04-29T05:31:35;8.15;;;7.70;;
17398;SDS011;8817;48.170;8.592;2023-04-29T05:34:02;8.25;;;7.75;;
17398;SDS011;8817;48.170;8.592;2023-04-29T05:36:29;8.52;;;8.02;;
17398;SDS011;8817;48.170;8.592;2023-04-29T05:38:56;8.52;;;7.93;;
17398;SDS011;8817;48.170;8.592;2023-04-29T05:41:24;8.03;;;7.57;;
17398;SDS011;8817;48.170;8.592;2023-04-29T05:43:51;8.00;;;7.50;;
17398;SDS011;8817;48.170;8.592;2023-04-29T05:46:18;8.10;;;7.60;;
17398;SDS011;8817;48.170;8.592;2023-04-29T05:48:46;7.75;;;7.35;;
17398;SDS011;8817;48.170;8.592;2023-04-29T05:51:13;7.40;;;7.00;;
17398;SDS011;8817;48.170;8.592;2023-04-29T05:53:40;8.13;;;7.53;;
17398;SDS011;8817;48.170;8.592;2023-04-29T05:56:07;8.00;;;7.50;;
17398;SDS011;8817;48.170;8.592;2023-04-29T05:58:36;8.15;;;7.65;;
17398;SDS011;8817;48.170;8.592;2023-04-29T06:01:03;7.90;;;7.30;;
17398;SDS011;8817;48.170;8.592;2023-04-29T06:03:30;7.90;;;7.43;;
17398;SDS011;8817;48.170;8.592;2023-04-29T06:05:57;7.82;;;7.32;;
17398;SDS011;8817;48.170;8.592;2023-04-29T06:08:24;7.40;;;7.00;;
17398;SDS011;8817;48.170;8.592;2023-04-29T06:10:51;7.97;;;7.53;;
17398;SDS011;8817;48.170;8.592;2023-04-29T06:13:17;7.90;;;7.50;;
17398;SDS011;8817;48.170;8.592;2023-04-29T06:15:46;7.90;;;7.40;;
17398;SDS011;8817;48.170;8.592;2023-04-29T06:18:13;8.32;;;7.82;;
17398;SDS011;8817;48.170;8.592;2023-04-29T06:20:39;8.00;;;7.60;;
17398;SDS011;8817;48.170;8.592;2023-04-29T06:23:06;8.10;;;7.60;;
17398;SDS011;8817;48.170;8.592;2023-04-29T06:25:33;7.88;;;7.30;;
17398;SDS011;8817;48.170;8.592;2023-04-29T06:28:00;7.88;;;7.38;;
17398;SDS011;8817;48.170;8.592;2023-04-29T06:30:28;7.78;;;7.28;;
17398;SDS011;8817;48.170;8.592;2023-04-29T06:32:56;8.15;;;7.30;;
17398;SDS011;8817;48.170;8.592;2023-04-29T06:35:23;7.70;;;7.10;;
17398;SDS011;8817;48.170;8.592;2023-04-29T06:37:50;7.50;;;7.10;;
17398;SDS011;8817;48.170;8.592;2023-04-29T06:40:17;7.38;;;6.97;;
17398;SDS011;8817;48.170;8.592;2023-04-29T06:42:44;7.00;;;6.60;;
17398;SDS011;8817;48.170;8.592;2023-04-29T06:45:11;7.18;;;6.78;;
17398;SDS011;8817;48.170;8.592;2023-04-29T06:47:38;6.90;;;6.50;;
17398;SDS011;8817;48.170;8.592;2023-04-29T06:50:07;7.10;;;6.70;;
17398;SDS011;8817;48.170;8.592;2023-04-29T06:52:34;7.20;;;6.68;;
17398;SDS011;8817;48.170;8.592;2023-04-29T06:55:01;6.60;;;6.20;;
17398;SDS011;8817;48.170;8.592;2023-04-29T06:57:29;7.00;;;6.60;;
17398;SDS011;8817;48.170;8.592;2023-04-29T06:59:56;7.32;;;6.78;;
17398;SDS011;8817;48.170;8.592;2023-04-29T07:02:23;7.10;;;6.70;;
17398;SDS011;8817;48.170;8.592;2023-04-29T07:04:50;7.45;;;6.75;;
17398;SDS011;8817;48.170;8.592;2023-04-29T07:07:18;6.85;;;6.45;;
17398;SDS011;8817;48.170;8.592;2023-04-29T07:09:45;6.53;;;6.22;;
17398;SDS011;8817;48.170;8.592;2023-04-29T07:12:15;6.55;;;6.25;;
17398;SDS011;8817;48.170;8.592;2023-04-29T07:14:42;6.60;;;6.30;;
17398;SDS011;8817;48.170;8.592;2023-04-29T07:17:09;6.55;;;6.20;;
17398;SDS011;8817;48.170;8.592;2023-04-29T07:19:36;6.60;;;6.20;;
17398;SDS011;8817;48.170;8.592;2023-04-29T07:22:03;6.00;;;5.70;;
17398;SDS011;8817;48.170;8.592;2023-04-29T07:24:31;6.20;;;5.90;;
17398;SDS011;8817;48.170;8.592;2023-04-29T07:26:58;6.00;;;5.70;;
17398;SDS011;8817;48.170;8.592;2023-04-29T07:29:25;6.22;;;5.97;;
17398;SDS011;8817;48.170;8.592;2023-04-29T07:31:52;6.05;;;5.75;;
17398;SDS011;8817;48.170;8.592;2023-04-29T07:34:18;6.07;;;5.50;;
17398;SDS011;8817;48.170;8.592;2023-04-29T07:36:45;6.32;;;5.93;;
17398;SDS011;8817;48.170;8.592;2023-04-29T07:39:12;6.72;;;6.15;;
17398;SDS011;8817;48.170;8.592;2023-04-29T07:41:41;6.05;;;5.75;;
17398;SDS011;8817;48.170;8.592;2023-04-29T07:44:08;5.93;;;5.63;;
17398;SDS011;8817;48.170;8.592;2023-04-29T07:46:35;6.03;;;5.70;;
17398;SDS011;8817;48.170;8.592;2023-04-29T07:49:02;5.85;;;5.55;;
17398;SDS011;8817;48.170;8.592;2023-04-29T07:51:31;6.00;;;5.70;;
17398;SDS011;8817;48.170;8.592;2023-04-29T07:53:57;5.93;;;5.63;;
17398;SDS011;8817;48.170;8.592;2023-04-29T07:56:24;5.63;;;5.43;;
17398;SDS011;8817;48.170;8.592;2023-04-29T07:58:53;5.70;;;5.40;;
17398;SDS011;8817;48.170;8.592;2023-04-29T08:01:19;5.55;;;5.35;;
17398;SDS011;8817;48.170;8.592;2023-04-29T08:03:46;5.60;;;5.40;;
17398;SDS011;8817;48.170;8.592;2023-04-29T08:06:13;5.50;;;5.30;;
17398;SDS011;8817;48.170;8.592;2023-04-29T08:08:40;5.60;;;5.30;;
17398;SDS011;8817;48.170;8.592;2023-04-29T08:11:08;5.97;;;5.57;;
17398;SDS011;8817;48.170;8.592;2023-04-29T08:13:41;5.60;;;5.40;;
17398;SDS011;8817;48.170;8.592;2023-04-29T08:16:09;5.47;;;5.28;;
17398;SDS011;8817;48.170;8.592;2023-04-29T08:18:36;5.50;;;5.30;;
17398;SDS011;8817;48.170;8.592;2023-04-29T08:21:03;5.45;;;5.25;;
17398;SDS011;8817;48.170;8.592;2023-04-29T08:23:30;5.60;;;5.40;;
17398;SDS011;8817;48.170;8.592;2023-04-29T08:25:58;5.85;;;5.55;;
17398;SDS011;8817;48.170;8.592;2023-04-29T08:28:25;5.45;;;5.25;;
17398;SDS011;8817;48.170;8.592;2023-04-29T08:30:52;6.10;;;5.70;;
17398;SDS011;8817;48.170;8.592;2023-04-29T08:33:20;5.53;;;5.32;;
17398;SDS011;8817;48.170;8.592;2023-04-29T08:35:47;5.50;;;5.30;;
17398;SDS011;8817;48.170;8.592;2023-04-29T08:38:15;5.72;;;5.43;;
17398;SDS011;8817;48.170;8.592;2023-04-29T08:40:42;6.00;;;5.70;;
17398;SDS011;8817;48.170;8.592;2023-04-29T08:43:10;6.03;;;5.70;;
17398;SDS011;8817;48.170;8.592;2023-04-29T08:45:38;6.00;;;5.70;;
17398;SDS011;8817;48.170;8.592;2023-04-29T08:48:06;5.85;;;5.63;;
17398;SDS011;8817;48.170;8.592;2023-04-29T08:50:36;6.20;;;5.65;;
17398;SDS011;8817;48.170;8.592;2023-04-29T08:53:05;5.85;;;5.55;;
17398;SDS011;8817;48.170;8.592;2023-04-29T08:55:33;6.03;;;5.72;;
17398;SDS011;8817;48.170;8.592;2023-04-29T08:58:01;5.90;;;5.60;;
17398;SDS011;8817;48.170;8.592;2023-04-29T09:00:29;5.60;;;5.30;;
17398;SDS011;8817;48.170;8.592;2023-04-29T09:02:57;5.53;;;5.32;;
17398;SDS011;8817;48.170;8.592;2023-04-29T09:05:25;5.57;;;5.38;;
17398;SDS011;8817;48.170;8.592;2023-04-29T09:07:54;5.63;;;5.43;;
17398;SDS011;8817;48.170;8.592;2023-04-29T09:10:23;6.03;;;5.63;;
17398;SDS011;8817;48.170;8.592;2023-04-29T09:12:51;6.00;;;5.70;;
17398;SDS011;8817;48.170;8.592;2023-04-29T09:15:22;6.25;;;5.70;;
17398;SDS011;8817;48.170;8.592;2023-04-29T09:17:49;5.80;;;5.40;;
17398;SDS011;8817;48.170;8.592;2023-04-29T09:20:26;6.10;;;5.75;;
17398;SDS011;8817;48.170;8.592;2023-04-29T09:22:55;6.10;;;5.80;;
17398;SDS011;8817;48.170;8.592;2023-04-29T09:25:24;5.80;;;5.60;;
17398;SDS011;8817;48.170;8.592;2023-04-29T09:27:52;5.75;;;5.47;;
17398;SDS011;8817;48.170;8.592;2023-04-29T09:30:19;6.00;;;5.70;;
17398;SDS011;8817;48.170;8.592;2023-04-29T09:33:00;6.00;;;5.65;;
17398;SDS011;8817;48.170;8.592;2023-04-29T09:35:30;5.97;;;5.68;;
17398;SDS011;8817;48.170;8.592;2023-04-29T09:38:09;6.00;;;5.60;;
17398;SDS011;8817;48.170;8.592;2023-04-29T09:40:37;5.85;;;5.55;;
17398;SDS011;8817;48.170;8.592;2023-04-29T09:43:10;5.55;;;5.35;;
17398;SDS011;8817;48.170;8.592;2023-04-29T09:45:39;5.95;;;5.65;;
17398;SDS011;8817;48.170;8.592;2023-04-29T09:48:07;5.78;;;5.57;;
17398;SDS011;8817;48.170;8.592;2023-04-29T09:50:35;5.90;;;5.55;;
17398;SDS011;8817;48.170;8.592;2023-04-29T09:53:02;5.72;;;5.30;;
17398;SDS011;8817;48.170;8.592;2023-04-29T09:55:32;5.88;;;5.55;;
17398;SDS011;8817;48.170;8.592;2023-04-29T09:57:58;5.60;;;5.30;;
17398;SDS011;8817;48.170;8.592;2023-04-29T10:00:26;5.85;;;5.40;;
17398;SDS011;8817;48.170;8.592;2023-04-29T10:02:57;5.53;;;5.22;;
17398;SDS011;8817;48.170;8.592;2023-04-29T10:05:26;5.38;;;5.18;;
17398;SDS011;8817;48.170;8.592;2023-04-29T10:07:56;5.45;;;5.25;;
17398;SDS011;8817;48.170;8.592;2023-04-29T10:10:24;5.35;;;5.15;;
17398;SDS011;8817;48.170;8.592;2023-04-29T10:12:54;5.65;;;5.45;;
17398;SDS011;8817;48.170;8.592;2023-04-29T10:15:25;5.30;;;5.10;;
17398;SDS011;8817;48.170;8.592;2023-04-29T10:17:57;5.93;;;5.63;;
17398;SDS011;8817;48.170;8.592;2023-04-29T10:20:28;6.00;;;5.60;;
17398;SDS011;8817;48.170;8.592;2023-04-29T10:22:55;5.10;;;4.90;;
17398;SDS011;8817;48.170;8.592;2023-04-29T10:25:24;5.50;;;5.20;;
17398;SDS011;8817;48.170;8.592;2023-04-29T10:27:52;5.70;;;5.45;;
17398;SDS011;8817;48.170;8.592;2023-04-29T10:30:23;5.32;;;5.13;;
17398;SDS011;8817;48.170;8.592;2023-04-29T10:32:50;6.40;;;5.95;;
17398;SDS011;8817;48.170;8.592;2023-04-29T10:35:19;5.63;;;5.32;;
17398;SDS011;8817;48.170;8.592;2023-04-29T10:37:48;5.40;;;5.20;;
17398;SDS011;8817;48.170;8.592;2023-04-29T10:40:15;5.43;;;5.22;;
17398;SDS011;8817;48.170;8.592;2023-04-29T10:42:46;5.78;;;5.47;;
17398;SDS011;8817;48.170;8.592;2023-04-29T10:45:22;5.75;;;5.47;;
17398;SDS011;8817;48.170;8.592;2023-04-29T10:53:27;6.10;;;5.78;;
17398;SDS011;8817;48.170;8.592;2023-04-29T10:55:55;5.32;;;5.13;;
17398;SDS011;8817;48.170;8.592;2023-04-29T10:58:37;5.07;;;4.88;;
17398;SDS011;8817;48.170;8.592;2023-04-29T11:01:08;5.25;;;5.05;;
17398;SDS011;8817;48.170;8.592;2023-04-29T11:03:49;5.00;;;4.80;;
17398;SDS011;8817;48.170;8.592;2023-04-29T11:06:22;5.72;;;5.43;;
17398;SDS011;8817;48.170;8.592;2023-04-29T11:09:00;5.20;;;5.00;;
17398;SDS011;8817;48.170;8.592;2023-04-29T11:11:44;4.93;;;4.82;;
17398;SDS011;8817;48.170;8.592;2023-04-29T11:14:40;5.18;;;4.97;;
17398;SDS011;8817;48.170;8.592;2023-04-29T11:17:09;5.22;;;5.03;;
17398;SDS011;8817;48.170;8.592;2023-04-29T11:19:40;5.45;;;5.15;;
17398;SDS011;8817;48.170;8.592;2023-04-29T11:22:10;5.50;;;5.30;;
17398;SDS011;8817;48.170;8.592;2023-04-29T11:24:52;5.38;;;5.18;;
17398;SDS011;8817;48.170;8.592;2023-04-29T11:27:21;5.10;;;4.90;;
17398;SDS011;8817;48.170;8.592;2023-04-29T11:29:50;5.57;;;5.38;;
17398;SDS011;8817;48.170;8.592;2023-04-29T11:32:21;5.38;;;5.18;;
17398;SDS011;8817;48.170;8.592;2023-04-29T11:34:48;5.60;;;5.30;;
17398;SDS011;8817;48.170;8.592;2023-04-29T11:37:19;5.35;;;5.00;;
17398;SDS011;8817;48.170;8.592;2023-04-29T11:39:46;5.63;;;5.43;;
17398;SDS011;8817;48.170;8.592;2023-04-29T11:42:18;8.40;;;5.28;;
17398;SDS011;8817;48.170;8.592;2023-04-29T11:44:46;5.25;;;5.05;;
17398;SDS011;8817;48.170;8.592;2023-04-29T11:47:16;5.25;;;5.00;;
17398;SDS011;8817;48.170;8.592;2023-04-29T11:49:44;5.45;;;5.20;;
17398;SDS011;8817;48.170;8.592;2023-04-29T11:52:11;5.20;;;5.00;;
17398;SDS011;8817;48.170;8.592;2023-04-29T11:54:39;5.22;;;4.90;;
17398;SDS011;8817;48.170;8.592;2023-04-29T11:57:09;5.20;;;5.00;;
17398;SDS011;8817;48.170;8.592;2023-04-29T11:59:36;5.35;;;5.15;;
17398;SDS011;8817;48.170;8.592;2023-04-29T12:02:03;5.00;;;4.80;;
17398;SDS011;8817;48.170;8.592;2023-04-29T12:04:30;5.15;;;4.70;;
17398;SDS011;8817;48.170;8.592;2023-04-29T12:06:58;5.32;;;5.13;;
17398;SDS011;8817;48.170;8.592;2023-04-29T12:09:25;4.90;;;4.70;;
17398;SDS011;8817;48.170;8.592;2023-04-29T12:11:51;9.50;;;5.00;;
17398;SDS011;8817;48.170;8.592;2023-04-29T12:14:19;4.90;;;4.70;;
17398;SDS011;8817;48.170;8.592;2023-04-29T12:16:46;4.95;;;4.75;;
17398;SDS011;8817;48.170;8.592;2023-04-29T12:19:13;4.95;;;4.75;;
17398;SDS011;8817;48.170;8.592;2023-04-29T12:21:49;6.50;;;5.93;;
17398;SDS011;8817;48.170;8.592;2023-04-29T12:24:19;7.93;;;7.15;;
17398;SDS011;8817;48.170;8.592;2023-04-29T12:26:46;16.77;;;9.82;;
17398;SDS011;8817;48.170;8.592;2023-04-29T12:29:14;9.63;;;7.50;;
17398;SDS011;8817;48.170;8.592;2023-04-29T12:31:41;7.88;;;6.50;;
17398;SDS011;8817;48.170;8.592;2023-04-29T12:34:08;7.30;;;5.75;;
17398;SDS011;8817;48.170;8.592;2023-04-29T12:36:35;6.38;;;5.82;;
17398;SDS011;8817;48.170;8.592;2023-04-29T12:39:04;8.45;;;7.45;;
17398;SDS011;8817;48.170;8.592;2023-04-29T12:41:39;6.50;;;6.00;;
17398;SDS011;8817;48.170;8.592;2023-04-29T12:44:06;6.28;;;5.75;;
17398;SDS011;8817;48.170;8.592;2023-04-29T12:46:35;5.80;;;5.45;;
17398;SDS011;8817;48.170;8.592;2023-04-29T12:49:02;6.10;;;5.70;;
17398;SDS011;8817;48.170;8.592;2023-04-29T12:51:30;6.25;;;5.82;;
17398;SDS011;8817;48.170;8.592;2023-04-29T12:53:58;10.20;;;7.68;;
17398;SDS011;8817;48.170;8.592;2023-04-29T12:56:25;6.30;;;5.90;;
17398;SDS011;8817;48.170;8.592;2023-04-29T12:58:54;5.40;;;5.20;;
17398;SDS011;8817;48.170;8.592;2023-04-29T13:01:21;6.75;;;6.15;;
17398;SDS011;8817;48.170;8.592;2023-04-29T13:03:47;6.40;;;5.90;;
17398;SDS011;8817;48.170;8.592;2023-04-29T13:06:15;6.03;;;5.63;;
17398;SDS011;8817;48.170;8.592;2023-04-29T13:08:42;6.07;;;5.45;;
17398;SDS011;8817;48.170;8.592;2023-04-29T13:11:09;5.95;;;5.65;;
17398;SDS011;8817;48.170;8.592;2023-04-29T13:13:37;6.00;;;5.60;;
17398;SDS011;8817;48.170;8.592;2023-04-29T13:16:06;5.80;;;5.30;;
17398;SDS011;8817;48.170;8.592;2023-04-29T13:18:33;5.50;;;5.20;;
17398;SDS011;8817;48.170;8.592;2023-04-29T13:21:00;6.18;;;5.78;;
17398;SDS011;8817;48.170;8.592;2023-04-29T13:23:27;5.40;;;5.20;;
17398;SDS011;8817;48.170;8.592;2023-04-29T13:25:54;5.68;;;5.22;;
17398;SDS011;8817;48.170;8.592;2023-04-29T13:28:21;5.60;;;5.30;;
17398;SDS011;8817;48.170;8.592;2023-04-29T13:30:48;5.88;;;5.57;;
17398;SDS011;8817;48.170;8.592;2023-04-29T13:33:17;5.18;;;4.88;;
17398;SDS011;8817;48.170;8.592;2023-04-29T13:35:44;5.63;;;5.40;;
17398;SDS011;8817;48.170;8.592;2023-04-29T13:38:11;6.95;;;6.35;;
17398;SDS011;8817;48.170;8.592;2023-04-29T13:40:38;5.88;;;5.47;;
17398;SDS011;8817;48.170;8.592;2023-04-29T13:43:05;6.32;;;5.80;;
17398;SDS011;8817;48.170;8.592;2023-04-29T13:45:32;6.38;;;5.90;;
17398;SDS011;8817;48.170;8.592;2023-04-29T13:47:59;5.57;;;5.22;;
17398;SDS011;8817;48.170;8.592;2023-04-29T13:50:28;6.20;;;5.70;;
17398;SDS011;8817;48.170;8.592;2023-04-29T13:52:55;6.65;;;5.90;;
17398;SDS011;8817;48.170;8.592;2023-04-29T13:55:22;5.80;;;5.50;;
17398;SDS011;8817;48.170;8.592;2023-04-29T13:57:49;5.15;;;4.95;;
17398;SDS011;8817;48.170;8.592;2023-04-29T14:00:17;8.02;;;6.80;;
17398;SDS011;8817;48.170;8.592;2023-04-29T14:02:44;6.38;;;5.97;;
17398;SDS011;8817;48.170;8.592;2023-04-29T14:05:11;6.32;;;5.93;;
17398;SDS011;8817;48.170;8.592;2023-04-29T14:07:40;6.10;;;5.70;;
17398;SDS011;8817;48.170;8.592;2023-04-29T14:10:07;6.40;;;6.00;;
17398;SDS011;8817;48.170;8.592;2023-04-29T14:12:34;5.70;;;5.30;;
17398;SDS011;8817;48.170;8.592;2023-04-29T14:15:01;5.40;;;5.20;;
17398;SDS011;8817;48.170;8.592;2023-04-29T14:17:28;5.57;;;5.18;;
17398;SDS011;8817;48.170;8.592;2023-04-29T14:19:55;5.20;;;5.00;;
17398;SDS011;8817;48.170;8.592;2023-04-29T14:22:21;5.10;;;4.90;;
17398;SDS011;8817;48.170;8.592;2023-04-29T14:24:50;5.85;;;5.38;;
17398;SDS011;8817;48.170;8.592;2023-04-29T14:27:17;6.47;;;5.95;;
17398;SDS011;8817;48.170;8.592;2023-04-29T14:29:45;5.90;;;5.60;;
17398;SDS011;8817;48.170;8.592;2023-04-29T14:32:12;6.05;;;5.65;;
17398;SDS011;8817;48.170;8.592;2023-04-29T14:34:39;5.57;;;5.20;;
17398;SDS011;8817;48.170;8.592;2023-04-29T14:37:06;6.80;;;6.30;;
17398;SDS011;8817;48.170;8.592;2023-04-29T14:39:33;5.60;;;5.25;;
17398;SDS011;8817;48.170;8.592;2023-04-29T14:42:01;6.80;;;6.22;;
17398;SDS011;8817;48.170;8.592;2023-04-29T14:44:28;5.25;;;5.03;;
17398;SDS011;8817;48.170;8.592;2023-04-29T14:46:55;6.88;;;6.38;;
17398;SDS011;8817;48.170;8.592;2023-04-29T14:49:22;7.70;;;6.93;;
17398;SDS011;8817;48.170;8.592;2023-04-29T14:51:50;5.70;;;5.40;;
17398;SDS011;8817;48.170;8.592;2023-04-29T14:54:17;6.00;;;5.50;;
17398;SDS011;8817;48.170;8.592;2023-04-29T14:56:43;5.97;;;5.60;;
17398;SDS011;8817;48.170;8.592;2023-04-29T14:59:12;5.63;;;5.32;;
17398;SDS011;8817;48.170;8.592;2023-04-29T15:01:39;5.70;;;5.40;;
17398;SDS011;8817;48.170;8.592;2023-04-29T15:04:05;5.80;;;5.50;;
17398;SDS011;8817;48.170;8.592;2023-04-29T15:06:32;5.60;;;5.40;;
17398;SDS011;8817;48.170;8.592;2023-04-29T15:09:00;5.50;;;5.20;;
17398;SDS011;8817;48.170;8.592;2023-04-29T15:11:27;5.40;;;5.10;;